sensor_id;sensor_type;location;lat;lon;timestamp;temperature;humidity
14006;DHT22;7078;51.542;7.314;2023-05-09T00:00:01;15.70;99.90
14006;DHT22;7078;51.542;7.314;2023-05-09T00:02:27;15.70;99.90
14006;DHT22;7078;51.542;7.314;2023-05-09T00:04:54;15.70;99.90
14006;DHT22;7078;51.542;7.314;2023-05-09T00:07:21;15.70;99.90
14006;DHT22;7078;51.542;7.314;2023-05-09T00:09:46;15.60;99.90
14006;DHT22;7078;51.542;7.314;2023-05-09T00:12:12;15.60;99.90
14006;DHT22;7078;51.542;7.314;2023-05-09T00:14:37;15.60;99.90
14006;DHT22;7078;51.542;7.314;2023-05-09T00:17:05;15.60;99.90
14006;DHT22;7078;51.542;7.314;2023-05-09T00:19:32;15.60;99.90
14006;DHT22;7078;51.542;7.314;2023-05-09T00:21:57;15.60;99.90
14006;DHT22;7078;51.542;7.314;2023-05-09T00:24:23;15.50;99.90
14006;DHT22;7078;51.542;7.314;2023-05-09T00:26:48;15.40;99.90
14006;DHT22;7078;51.542;7.314;2023-05-09T00:29:14;15.40;99.90
14006;DHT22;7078;51.542;7.314;2023-05-09T00:31:39;15.50;99.90
14006;DHT22;7078;51.542;7.314;2023-05-09T00:34:05;15.40;99.90
14006;DHT22;7078;51.542;7.314;2023-05-09T00:36:30;15.40;99.90
14006;DHT22;7078;51.542;7.314;2023-05-09T00:38:57;15.30;99.90
14006;DHT22;7078;51.542;7.314;2023-05-09T00:41:22;15.30;99.90
14006;DHT22;7078;51.542;7.314;2023-05-09T00:43:48;15.20;99.90
14006;DHT22;7078;51.542;7.314;2023-05-09T00:46:13;15.30;99.90
14006;DHT22;7078;51.542;7.314;2023-05-09T00:48:39;15.20;99.90
14006;DHT22;7078;51.542;7.314;2023-05-09T00:51:05;15.20;99.90
14006;DHT22;7078;51.542;7.314;2023-05-09T00:53:31;15.10;99.90
14006;DHT22;7078;51.542;7.314;2023-05-09T00:55:57;15.10;99.90
14006;DHT22;7078;51.542;7.314;2023-05-09T00:58:24;15.20;99.90
14006;DHT22;7078;51.542;7.314;2023-05-09T01:00:50;15.10;99.90
14006;DHT22;7078;51.542;7.314;2023-05-09T01:03:16;14.90;99.90
14006;DHT22;7078;51.542;7.314;2023-05-09T01:08:50;14.90;99.90
14006;DHT22;7078;51.542;7.314;2023-05-09T01:11:30;14.80;99.90
14006;DHT22;7078;51.542;7.314;2023-05-09T01:17:29;14.90;99.90
14006;DHT22;7078;51.542;7.314;2023-05-09T01:26:04;14.80;99.90
14006;DHT22;7078;51.542;7.314;2023-05-09T01:28:45;14.80;99.90
14006;DHT22;7078;51.542;7.314;2023-05-09T01:31:16;14.80;99.90
14006;DHT22;7078;51.542;7.314;2023-05-09T01:33:44;14.70;99.90
14006;DHT22;7078;51.542;7.314;2023-05-09T01:36:15;14.70;99.90
14006;DHT22;7078;51.542;7.314;2023-05-09T01:38:42;14.70;99.90
14006;DHT22;7078;51.542;7.314;2023-05-09T01:43:37;14.80;99.90
14006;DHT22;7078;51.542;7.314;2023-05-09T01:46:04;14.80;99.90
14006;DHT22;7078;51.542;7.314;2023-05-09T01:48:30;14.80;99.90
14006;DHT22;7078;51.542;7.314;2023-05-09T01:50:57;14.70;99.90
14006;DHT22;7078;51.542;7.314;2023-05-09T01:53:24;14.80;99.90
14006;DHT22;7078;51.542;7.314;2023-05-09T01:55:50;14.80;99.90
14006;DHT22;7078;51.542;7.314;2023-05-09T01:58:18;14.80;99.90
14006;DHT22;7078;51.542;7.314;2023-05-09T02:00:45;14.80;99.90
14006;DHT22;7078;51.542;7.314;2023-05-09T02:03:12;14.80;99.90
14006;DHT22;7078;51.542;7.314;2023-05-09T02:05:38;14.80;99.90
14006;DHT22;7078;51.542;7.314;2023-05-09T02:08:04;14.80;99.90
14006;DHT22;7078;51.542;7.314;2023-05-09T02:10:31;14.80;99.90
14006;DHT22;7078;51.542;7.314;2023-05-09T02:12:58;14.80;99.90
14006;DHT22;7078;51.542;7.314;2023-05-09T02:15:24;14.80;99.90
14006;DHT22;7078;51.542;7.314;2023-05-09T02:17:50;14.70;99.90
14006;DHT22;7078;51.542;7.314;2023-05-09T02:20:15;14.80;99.90
14006;DHT22;7078;51.542;7.314;2023-05-09T02:22:42;14.80;99.90
14006;DHT22;7078;51.542;7.314;2023-05-09T02:25:10;14.80;99.90
14006;DHT22;7078;51.542;7.314;2023-05-09T02:27:39;14.80;99.90
14006;DHT22;7078;51.542;7.314;2023-05-09T02:30:08;14.80;99.90
14006;DHT22;7078;51.542;7.314;2023-05-09T02:32:36;14.80;99.90
14006;DHT22;7078;51.542;7.314;2023-05-09T02:35:03;14.80;99.90
14006;DHT22;7078;51.542;7.314;2023-05-09T02:37:31;14.80;99.90
14006;DHT22;7078;51.542;7.314;2023-05-09T02:39:57;14.80;99.90
14006;DHT22;7078;51.542;7.314;2023-05-09T02:42:24;14.80;99.90
14006;DHT22;7078;51.542;7.314;2023-05-09T02:44:53;14.80;99.90
14006;DHT22;7078;51.542;7.314;2023-05-09T02:47:19;14.80;99.90
14006;DHT22;7078;51.542;7.314;2023-05-09T02:49:45;14.80;99.90
14006;DHT22;7078;51.542;7.314;2023-05-09T02:52:12;14.80;99.90
14006;DHT22;7078;51.542;7.314;2023-05-09T02:54:38;14.70;99.90
14006;DHT22;7078;51.542;7.314;2023-05-09T02:57:04;14.70;99.90
14006;DHT22;7078;51.542;7.314;2023-05-09T02:59:30;14.70;99.90
14006;DHT22;7078;51.542;7.314;2023-05-09T03:01:56;14.70;99.90
14006;DHT22;7078;51.542;7.314;2023-05-09T03:04:22;14.70;99.90
14006;DHT22;7078;51.542;7.314;2023-05-09T03:06:50;14.70;99.90
14006;DHT22;7078;51.542;7.314;2023-05-09T03:09:15;14.70;99.90
14006;DHT22;7078;51.542;7.314;2023-05-09T03:11:41;14.70;99.90
14006;DHT22;7078;51.542;7.314;2023-05-09T03:14:06;14.70;99.90
14006;DHT22;7078;51.542;7.314;2023-05-09T03:16:33;14.70;99.90
14006;DHT22;7078;51.542;7.314;2023-05-09T03:18:59;14.80;99.90
14006;DHT22;7078;51.542;7.314;2023-05-09T03:21:24;14.80;99.90
14006;DHT22;7078;51.542;7.314;2023-05-09T03:23:50;14.80;99.90
14006;DHT22;7078;51.542;7.314;2023-05-09T03:26:15;14.80;99.90
14006;DHT22;7078;51.542;7.314;2023-05-09T03:28:41;14.80;99.90
14006;DHT22;7078;51.542;7.314;2023-05-09T03:31:06;14.70;99.90
14006;DHT22;7078;51.542;7.314;2023-05-09T03:33:32;14.70;99.90
14006;DHT22;7078;51.542;7.314;2023-05-09T03:35:57;14.70;99.90
14006;DHT22;7078;51.542;7.314;2023-05-09T03:38:23;14.70;99.90
14006;DHT22;7078;51.542;7.314;2023-05-09T03:40:49;14.70;99.90
14006;DHT22;7078;51.542;7.314;2023-05-09T03:43:15;14.70;99.90
14006;DHT22;7078;51.542;7.314;2023-05-09T03:45:41;14.70;99.90
14006;DHT22;7078;51.542;7.314;2023-05-09T03:48:07;14.70;99.90
14006;DHT22;7078;51.542;7.314;2023-05-09T03:50:34;14.60;99.90
14006;DHT22;7078;51.542;7.314;2023-05-09T03:53:00;14.70;99.90
14006;DHT22;7078;51.542;7.314;2023-05-09T03:55:25;14.60;99.90
14006;DHT22;7078;51.542;7.314;2023-05-09T03:57:51;14.60;99.90
14006;DHT22;7078;51.542;7.314;2023-05-09T04:00:16;14.60;99.90
14006;DHT22;7078;51.542;7.314;2023-05-09T04:02:42;14.60;99.90
14006;DHT22;7078;51.542;7.314;2023-05-09T04:05:08;14.60;99.90
14006;DHT22;7078;51.542;7.314;2023-05-09T04:07:33;14.60;99.90
14006;DHT22;7078;51.542;7.314;2023-05-09T04:09:59;14.60;99.90
14006;DHT22;7078;51.542;7.314;2023-05-09T04:12:24;14.70;99.90
14006;DHT22;7078;51.542;7.314;2023-05-09T04:14:50;14.70;99.90
14006;DHT22;7078;51.542;7.314;2023-05-09T04:17:16;14.70;99.90
14006;DHT22;7078;51.542;7.314;2023-05-09T04:19:42;14.80;99.90
14006;DHT22;7078;51.542;7.314;2023-05-09T04:22:07;14.80;99.90
14006;DHT22;7078;51.542;7.314;2023-05-09T04:24:33;14.80;99.90
14006;DHT22;7078;51.542;7.314;2023-05-09T04:26:58;14.90;99.90
14006;DHT22;7078;51.542;7.314;2023-05-09T04:29:25;14.90;99.90
14006;DHT22;7078;51.542;7.314;2023-05-09T04:31:50;14.90;99.90
14006;DHT22;7078;51.542;7.314;2023-05-09T04:34:16;14.90;99.90
14006;DHT22;7078;51.542;7.314;2023-05-09T04:36:41;14.90;99.90
14006;DHT22;7078;51.542;7.314;2023-05-09T04:39:07;14.90;99.90
14006;DHT22;7078;51.542;7.314;2023-05-09T04:41:33;14.90;99.90
14006;DHT22;7078;51.542;7.314;2023-05-09T04:43:58;15.00;99.90
14006;DHT22;7078;51.542;7.314;2023-05-09T04:46:24;15.00;99.90
14006;DHT22;7078;51.542;7.314;2023-05-09T04:48:50;15.00;99.90
14006;DHT22;7078;51.542;7.314;2023-05-09T04:51:15;15.10;99.90
14006;DHT22;7078;51.542;7.314;2023-05-09T04:53:41;15.10;99.90
14006;DHT22;7078;51.542;7.314;2023-05-09T04:56:06;15.20;99.90
14006;DHT22;7078;51.542;7.314;2023-05-09T04:58:32;15.20;99.90
14006;DHT22;7078;51.542;7.314;2023-05-09T05:00:59;15.20;99.90
14006;DHT22;7078;51.542;7.314;2023-05-09T05:03:24;15.20;99.90
14006;DHT22;7078;51.542;7.314;2023-05-09T05:05:50;15.20;99.90
14006;DHT22;7078;51.542;7.314;2023-05-09T05:08:15;15.20;99.90
14006;DHT22;7078;51.542;7.314;2023-05-09T05:10:41;15.30;99.90
14006;DHT22;7078;51.542;7.314;2023-05-09T05:13:06;15.20;99.90
14006;DHT22;7078;51.542;7.314;2023-05-09T05:15:32;15.20;99.90
14006;DHT22;7078;51.542;7.314;2023-05-09T05:17:57;15.30;99.90
14006;DHT22;7078;51.542;7.314;2023-05-09T05:20:23;15.30;99.90
14006;DHT22;7078;51.542;7.314;2023-05-09T05:22:48;15.30;99.90
14006;DHT22;7078;51.542;7.314;2023-05-09T05:25:14;15.30;99.90
14006;DHT22;7078;51.542;7.314;2023-05-09T05:27:40;15.30;99.90
14006;DHT22;7078;51.542;7.314;2023-05-09T05:30:06;15.40;99.90
14006;DHT22;7078;51.542;7.314;2023-05-09T05:32:31;15.40;99.90
14006;DHT22;7078;51.542;7.314;2023-05-09T05:34:57;15.40;99.90
14006;DHT22;7078;51.542;7.314;2023-05-09T05:37:22;15.40;99.90
14006;DHT22;7078;51.542;7.314;2023-05-09T05:39:48;15.50;99.90
14006;DHT22;7078;51.542;7.314;2023-05-09T05:42:16;15.50;99.90
14006;DHT22;7078;51.542;7.314;2023-05-09T05:44:41;15.50;99.90
14006;DHT22;7078;51.542;7.314;2023-05-09T05:47:07;15.60;99.90
14006;DHT22;7078;51.542;7.314;2023-05-09T05:49:32;15.60;99.90
14006;DHT22;7078;51.542;7.314;2023-05-09T05:51:58;15.60;99.90
14006;DHT22;7078;51.542;7.314;2023-05-09T05:54:23;15.70;99.90
14006;DHT22;7078;51.542;7.314;2023-05-09T05:56:49;15.70;99.90
14006;DHT22;7078;51.542;7.314;2023-05-09T05:59:14;15.80;99.90
14006;DHT22;7078;51.542;7.314;2023-05-09T06:01:40;15.90;99.90
14006;DHT22;7078;51.542;7.314;2023-05-09T06:04:06;15.90;99.90
14006;DHT22;7078;51.542;7.314;2023-05-09T06:06:31;16.00;99.90
14006;DHT22;7078;51.542;7.314;2023-05-09T06:08:57;16.20;99.90
14006;DHT22;7078;51.542;7.314;2023-05-09T06:11:22;16.10;99.90
14006;DHT22;7078;51.542;7.314;2023-05-09T06:13:48;16.20;99.90
14006;DHT22;7078;51.542;7.314;2023-05-09T06:16:13;16.10;99.90
14006;DHT22;7078;51.542;7.314;2023-05-09T06:18:40;16.20;99.90
14006;DHT22;7078;51.542;7.314;2023-05-09T06:21:06;16.30;99.90
14006;DHT22;7078;51.542;7.314;2023-05-09T06:23:32;16.30;99.90
14006;DHT22;7078;51.542;7.314;2023-05-09T06:25:57;16.30;99.90
14006;DHT22;7078;51.542;7.314;2023-05-09T06:28:23;16.30;99.90
14006;DHT22;7078;51.542;7.314;2023-05-09T06:30:49;16.40;99.90
14006;DHT22;7078;51.542;7.314;2023-05-09T06:33:14;16.60;99.90
14006;DHT22;7078;51.542;7.314;2023-05-09T06:35:40;16.60;99.90
14006;DHT22;7078;51.542;7.314;2023-05-09T06:38:05;16.60;99.90
14006;DHT22;7078;51.542;7.314;2023-05-09T06:40:31;16.70;99.90
14006;DHT22;7078;51.542;7.314;2023-05-09T06:42:57;16.90;99.90
14006;DHT22;7078;51.542;7.314;2023-05-09T06:45:22;17.20;99.90
14006;DHT22;7078;51.542;7.314;2023-05-09T06:47:48;17.40;99.90
14006;DHT22;7078;51.542;7.314;2023-05-09T06:50:13;17.60;99.90
14006;DHT22;7078;51.542;7.314;2023-05-09T06:52:39;17.80;99.90
14006;DHT22;7078;51.542;7.314;2023-05-09T06:55:05;17.90;99.90
14006;DHT22;7078;51.542;7.314;2023-05-09T06:57:31;18.10;99.90
14006;DHT22;7078;51.542;7.314;2023-05-09T09:39:55;21.20;99.90
14006;DHT22;7078;51.542;7.314;2023-05-09T09:42:21;21.40;99.90
14006;DHT22;7078;51.542;7.314;2023-05-09T09:45:09;21.70;99.90
14006;DHT22;7078;51.542;7.314;2023-05-09T09:47:34;21.80;99.90
14006;DHT22;7078;51.542;7.314;2023-05-09T09:50:13;21.60;99.90
14006;DHT22;7078;51.542;7.314;2023-05-09T09:52:49;21.70;99.90
14006;DHT22;7078;51.542;7.314;2023-05-09T09:55:17;21.90;99.90
14006;DHT22;7078;51.542;7.314;2023-05-09T09:57:43;22.00;99.90
14006;DHT22;7078;51.542;7.314;2023-05-09T10:00:11;21.90;99.90
14006;DHT22;7078;51.542;7.314;2023-05-09T10:02:54;21.80;99.90
14006;DHT22;7078;51.542;7.314;2023-05-09T10:07:56;21.90;99.90
14006;DHT22;7078;51.542;7.314;2023-05-09T10:10:27;22.00;99.90
14006;DHT22;7078;51.542;7.314;2023-05-09T10:12:57;22.10;99.90
14006;DHT22;7078;51.542;7.314;2023-05-09T10:15:24;22.40;99.90
14006;DHT22;7078;51.542;7.314;2023-05-09T10:17:53;22.30;99.50
14006;DHT22;7078;51.542;7.314;2023-05-09T10:20:20;22.30;99.90
14006;DHT22;7078;51.542;7.314;2023-05-09T10:22:46;22.40;99.90
14006;DHT22;7078;51.542;7.314;2023-05-09T10:25:20;22.40;99.60
14006;DHT22;7078;51.542;7.314;2023-05-09T10:27:47;22.20;95.60
14006;DHT22;7078;51.542;7.314;2023-05-09T10:30:18;22.10;96.70
14006;DHT22;7078;51.542;7.314;2023-05-09T10:32:52;22.00;96.60
14006;DHT22;7078;51.542;7.314;2023-05-09T10:35:21;22.10;97.40
14006;DHT22;7078;51.542;7.314;2023-05-09T10:37:49;22.30;95.00
14006;DHT22;7078;51.542;7.314;2023-05-09T10:40:14;22.40;94.70
14006;DHT22;7078;51.542;7.314;2023-05-09T10:42:44;22.60;94.00
14006;DHT22;7078;51.542;7.314;2023-05-09T10:45:10;22.70;93.60
14006;DHT22;7078;51.542;7.314;2023-05-09T10:47:37;22.60;92.50
14006;DHT22;7078;51.542;7.314;2023-05-09T10:50:07;22.60;91.10
14006;DHT22;7078;51.542;7.314;2023-05-09T10:52:33;22.70;91.40
14006;DHT22;7078;51.542;7.314;2023-05-09T10:55:00;22.90;92.10
14006;DHT22;7078;51.542;7.314;2023-05-09T10:57:30;23.00;90.80
14006;DHT22;7078;51.542;7.314;2023-05-09T10:59:57;22.90;90.00
14006;DHT22;7078;51.542;7.314;2023-05-09T11:02:23;22.80;90.20
14006;DHT22;7078;51.542;7.314;2023-05-09T11:05:17;22.90;88.90
14006;DHT22;7078;51.542;7.314;2023-05-09T11:07:44;22.90;88.70
14006;DHT22;7078;51.542;7.314;2023-05-09T11:10:17;22.90;86.90
14006;DHT22;7078;51.542;7.314;2023-05-09T11:12:58;22.60;85.20
14006;DHT22;7078;51.542;7.314;2023-05-09T11:15:24;22.60;87.10
14006;DHT22;7078;51.542;7.314;2023-05-09T11:18:11;22.80;87.70
14006;DHT22;7078;51.542;7.314;2023-05-09T11:20:44;22.80;88.50
14006;DHT22;7078;51.542;7.314;2023-05-09T11:23:10;22.70;90.10
14006;DHT22;7078;51.542;7.314;2023-05-09T11:25:38;22.60;91.30
14006;DHT22;7078;51.542;7.314;2023-05-09T11:28:04;22.70;90.60
14006;DHT22;7078;51.542;7.314;2023-05-09T11:30:48;22.80;91.10
14006;DHT22;7078;51.542;7.314;2023-05-09T11:33:26;23.00;89.00
14006;DHT22;7078;51.542;7.314;2023-05-09T11:38:41;23.00;88.40
14006;DHT22;7078;51.542;7.314;2023-05-09T11:41:07;23.00;88.00
14006;DHT22;7078;51.542;7.314;2023-05-09T11:43:35;23.10;89.10
14006;DHT22;7078;51.542;7.314;2023-05-09T11:46:02;23.00;85.20
14006;DHT22;7078;51.542;7.314;2023-05-09T11:48:28;22.80;86.30
14006;DHT22;7078;51.542;7.314;2023-05-09T11:50:53;22.80;87.80
14006;DHT22;7078;51.542;7.314;2023-05-09T11:53:18;22.90;87.20
14006;DHT22;7078;51.542;7.314;2023-05-09T11:55:44;22.90;88.60
14006;DHT22;7078;51.542;7.314;2023-05-09T11:58:10;22.90;86.30
14006;DHT22;7078;51.542;7.314;2023-05-09T12:00:45;22.80;86.30
14006;DHT22;7078;51.542;7.314;2023-05-09T12:03:11;22.70;82.60
14006;DHT22;7078;51.542;7.314;2023-05-09T12:05:37;22.60;85.70
14006;DHT22;7078;51.542;7.314;2023-05-09T12:08:07;22.70;86.50
14006;DHT22;7078;51.542;7.314;2023-05-09T12:10:36;22.70;86.20
14006;DHT22;7078;51.542;7.314;2023-05-09T12:13:02;22.90;86.90
14006;DHT22;7078;51.542;7.314;2023-05-09T12:15:28;23.00;87.00
14006;DHT22;7078;51.542;7.314;2023-05-09T12:18:01;23.00;85.80
14006;DHT22;7078;51.542;7.314;2023-05-09T12:20:27;23.20;88.60
14006;DHT22;7078;51.542;7.314;2023-05-09T12:23:03;23.00;83.50
14006;DHT22;7078;51.542;7.314;2023-05-09T12:25:29;22.70;85.60
14006;DHT22;7078;51.542;7.314;2023-05-09T12:27:54;22.50;85.50
14006;DHT22;7078;51.542;7.314;2023-05-09T12:30:21;22.30;86.90
14006;DHT22;7078;51.542;7.314;2023-05-09T12:32:47;22.30;86.70
14006;DHT22;7078;51.542;7.314;2023-05-09T12:35:12;22.20;88.70
14006;DHT22;7078;51.542;7.314;2023-05-09T12:37:38;22.10;90.10
14006;DHT22;7078;51.542;7.314;2023-05-09T12:40:09;22.00;89.30
14006;DHT22;7078;51.542;7.314;2023-05-09T12:42:42;22.10;90.20
14006;DHT22;7078;51.542;7.314;2023-05-09T12:45:08;22.20;90.20
14006;DHT22;7078;51.542;7.314;2023-05-09T12:47:34;22.20;90.10
14006;DHT22;7078;51.542;7.314;2023-05-09T12:50:03;22.40;89.70
14006;DHT22;7078;51.542;7.314;2023-05-09T12:52:39;22.50;90.20
14006;DHT22;7078;51.542;7.314;2023-05-09T12:55:08;22.60;90.40
14006;DHT22;7078;51.542;7.314;2023-05-09T12:57:34;22.60;89.90
14006;DHT22;7078;51.542;7.314;2023-05-09T13:00:01;22.80;89.40
14006;DHT22;7078;51.542;7.314;2023-05-09T13:02:33;22.90;88.60
14006;DHT22;7078;51.542;7.314;2023-05-09T13:05:16;22.90;89.40
14006;DHT22;7078;51.542;7.314;2023-05-09T13:07:45;23.10;88.00
14006;DHT22;7078;51.542;7.314;2023-05-09T13:10:24;23.10;85.60
14006;DHT22;7078;51.542;7.314;2023-05-09T13:12:51;23.00;84.70
14006;DHT22;7078;51.542;7.314;2023-05-09T13:15:18;23.20;85.90
14006;DHT22;7078;51.542;7.314;2023-05-09T13:17:46;23.30;83.50
14006;DHT22;7078;51.542;7.314;2023-05-09T13:20:11;23.20;83.40
14006;DHT22;7078;51.542;7.314;2023-05-09T13:22:37;23.00;84.00
14006;DHT22;7078;51.542;7.314;2023-05-09T13:25:03;22.90;84.50
14006;DHT22;7078;51.542;7.314;2023-05-09T13:27:29;22.70;85.60
14006;DHT22;7078;51.542;7.314;2023-05-09T13:29:55;22.70;87.20
14006;DHT22;7078;51.542;7.314;2023-05-09T13:32:20;22.70;85.50
14006;DHT22;7078;51.542;7.314;2023-05-09T13:34:46;22.80;86.50
14006;DHT22;7078;51.542;7.314;2023-05-09T13:37:11;22.80;86.70
14006;DHT22;7078;51.542;7.314;2023-05-09T13:39:37;22.90;88.20
14006;DHT22;7078;51.542;7.314;2023-05-09T13:42:02;22.90;85.80
14006;DHT22;7078;51.542;7.314;2023-05-09T13:44:28;22.90;86.20
14006;DHT22;7078;51.542;7.314;2023-05-09T13:46:54;22.80;86.30
14006;DHT22;7078;51.542;7.314;2023-05-09T13:49:19;22.70;87.30
14006;DHT22;7078;51.542;7.314;2023-05-09T13:51:45;22.80;88.10
14006;DHT22;7078;51.542;7.314;2023-05-09T13:54:10;22.70;88.30
14006;DHT22;7078;51.542;7.314;2023-05-09T13:56:41;22.70;87.80
14006;DHT22;7078;51.542;7.314;2023-05-09T13:59:07;22.60;90.40
14006;DHT22;7078;51.542;7.314;2023-05-09T14:01:32;22.60;90.30
14006;DHT22;7078;51.542;7.314;2023-05-09T14:03:58;22.50;90.80
14006;DHT22;7078;51.542;7.314;2023-05-09T14:06:24;22.40;90.90
14006;DHT22;7078;51.542;7.314;2023-05-09T14:08:49;22.30;90.40
14006;DHT22;7078;51.542;7.314;2023-05-09T14:11:15;22.20;90.60
14006;DHT22;7078;51.542;7.314;2023-05-09T14:13:40;22.10;91.80
14006;DHT22;7078;51.542;7.314;2023-05-09T14:16:06;22.20;92.30
14006;DHT22;7078;51.542;7.314;2023-05-09T14:18:33;22.20;92.40
14006;DHT22;7078;51.542;7.314;2023-05-09T14:20:59;22.10;92.40
14006;DHT22;7078;51.542;7.314;2023-05-09T14:23:25;22.10;92.20
14006;DHT22;7078;51.542;7.314;2023-05-09T14:25:50;22.00;93.50
14006;DHT22;7078;51.542;7.314;2023-05-09T14:28:16;21.80;94.10
14006;DHT22;7078;51.542;7.314;2023-05-09T14:30:41;21.70;95.00
14006;DHT22;7078;51.542;7.314;2023-05-09T14:33:08;21.50;95.20
14006;DHT22;7078;51.542;7.314;2023-05-09T14:35:33;21.30;98.00
14006;DHT22;7078;51.542;7.314;2023-05-09T14:38:01;21.40;99.90
14006;DHT22;7078;51.542;7.314;2023-05-09T14:40:27;21.20;98.50
14006;DHT22;7078;51.542;7.314;2023-05-09T14:42:59;21.10;99.90
14006;DHT22;7078;51.542;7.314;2023-05-09T14:45:27;21.00;99.90
14006;DHT22;7078;51.542;7.314;2023-05-09T14:47:53;21.00;99.90
14006;DHT22;7078;51.542;7.314;2023-05-09T14:50:20;20.90;99.90
14006;DHT22;7078;51.542;7.314;2023-05-09T14:52:46;20.80;99.90
14006;DHT22;7078;51.542;7.314;2023-05-09T14:55:12;20.60;99.90
14006;DHT22;7078;51.542;7.314;2023-05-09T14:57:37;20.20;99.90
14006;DHT22;7078;51.542;7.314;2023-05-09T15:00:03;20.00;99.90
14006;DHT22;7078;51.542;7.314;2023-05-09T15:02:29;19.60;99.90
14006;DHT22;7078;51.542;7.314;2023-05-09T15:04:55;19.10;99.90
14006;DHT22;7078;51.542;7.314;2023-05-09T15:07:20;18.80;99.90
14006;DHT22;7078;51.542;7.314;2023-05-09T15:09:46;18.40;99.90
14006;DHT22;7078;51.542;7.314;2023-05-09T15:12:11;18.20;99.90
14006;DHT22;7078;51.542;7.314;2023-05-09T15:14:37;17.90;99.90
14006;DHT22;7078;51.542;7.314;2023-05-09T15:17:04;17.80;99.90
14006;DHT22;7078;51.542;7.314;2023-05-09T15:19:30;17.70;99.90
14006;DHT22;7078;51.542;7.314;2023-05-09T15:21:57;17.60;99.90
14006;DHT22;7078;51.542;7.314;2023-05-09T15:24:23;17.60;99.90
14006;DHT22;7078;51.542;7.314;2023-05-09T15:26:49;17.60;99.90
14006;DHT22;7078;51.542;7.314;2023-05-09T15:29:15;17.60;99.90
14006;DHT22;7078;51.542;7.314;2023-05-09T15:31:40;17.60;99.90
14006;DHT22;7078;51.542;7.314;2023-05-09T15:34:06;17.60;99.90
14006;DHT22;7078;51.542;7.314;2023-05-09T15:36:31;17.60;99.90
14006;DHT22;7078;51.542;7.314;2023-05-09T15:38:58;17.60;99.90
14006;DHT22;7078;51.542;7.314;2023-05-09T15:41:24;17.60;99.90
14006;DHT22;7078;51.542;7.314;2023-05-09T15:43:50;17.50;99.90
14006;DHT22;7078;51.542;7.314;2023-05-09T15:46:16;17.50;99.90
14006;DHT22;7078;51.542;7.314;2023-05-09T15:48:41;17.50;99.90
14006;DHT22;7078;51.542;7.314;2023-05-09T15:51:07;17.50;99.90
14006;DHT22;7078;51.542;7.314;2023-05-09T15:53:33;17.30;99.90
14006;DHT22;7078;51.542;7.314;2023-05-09T15:55:59;17.10;99.90
14006;DHT22;7078;51.542;7.314;2023-05-09T15:58:25;17.10;99.90
14006;DHT22;7078;51.542;7.314;2023-05-09T16:00:51;17.00;99.90
14006;DHT22;7078;51.542;7.314;2023-05-09T16:03:17;16.90;99.90
14006;DHT22;7078;51.542;7.314;2023-05-09T16:05:42;16.90;99.90
14006;DHT22;7078;51.542;7.314;2023-05-09T16:08:08;16.80;99.90
14006;DHT22;7078;51.542;7.314;2023-05-09T16:10:34;16.70;99.90
14006;DHT22;7078;51.542;7.314;2023-05-09T16:12:59;16.60;99.90
14006;DHT22;7078;51.542;7.314;2023-05-09T16:15:25;16.50;99.90
14006;DHT22;7078;51.542;7.314;2023-05-09T16:17:50;16.40;99.90
14006;DHT22;7078;51.542;7.314;2023-05-09T16:20:16;16.40;99.90
14006;DHT22;7078;51.542;7.314;2023-05-09T16:22:42;16.40;99.90
14006;DHT22;7078;51.542;7.314;2023-05-09T16:25:07;16.40;99.90
14006;DHT22;7078;51.542;7.314;2023-05-09T16:27:33;16.40;99.90
14006;DHT22;7078;51.542;7.314;2023-05-09T16:29:58;16.40;99.90
14006;DHT22;7078;51.542;7.314;2023-05-09T16:32:24;16.40;99.90
14006;DHT22;7078;51.542;7.314;2023-05-09T16:34:49;16.30;99.90
14006;DHT22;7078;51.542;7.314;2023-05-09T16:37:15;16.30;99.90
14006;DHT22;7078;51.542;7.314;2023-05-09T16:39:43;16.30;99.90
14006;DHT22;7078;51.542;7.314;2023-05-09T16:42:09;16.30;99.90
14006;DHT22;7078;51.542;7.314;2023-05-09T16:44:34;16.30;99.90
14006;DHT22;7078;51.542;7.314;2023-05-09T16:47:00;16.30;99.90
14006;DHT22;7078;51.542;7.314;2023-05-09T16:49:25;16.30;99.90
14006;DHT22;7078;51.542;7.314;2023-05-09T16:51:51;16.30;99.90
14006;DHT22;7078;51.542;7.314;2023-05-09T16:54:16;16.30;99.90
14006;DHT22;7078;51.542;7.314;2023-05-09T16:56:42;16.30;99.90
14006;DHT22;7078;51.542;7.314;2023-05-09T16:59:07;16.20;99.90
14006;DHT22;7078;51.542;7.314;2023-05-09T17:01:33;16.20;99.90
14006;DHT22;7078;51.542;7.314;2023-05-09T17:03:58;16.30;99.90
14006;DHT22;7078;51.542;7.314;2023-05-09T17:06:25;16.20;99.90
14006;DHT22;7078;51.542;7.314;2023-05-09T17:08:52;16.20;99.90
14006;DHT22;7078;51.542;7.314;2023-05-09T17:11:18;16.20;99.90
14006;DHT22;7078;51.542;7.314;2023-05-09T17:13:43;16.20;99.90
14006;DHT22;7078;51.542;7.314;2023-05-09T17:16:09;16.20;99.90
14006;DHT22;7078;51.542;7.314;2023-05-09T17:18:35;16.20;99.90
14006;DHT22;7078;51.542;7.314;2023-05-09T17:21:00;16.20;99.90
14006;DHT22;7078;51.542;7.314;2023-05-09T17:23:26;16.20;99.90
14006;DHT22;7078;51.542;7.314;2023-05-09T17:25:51;16.20;99.90
14006;DHT22;7078;51.542;7.314;2023-05-09T17:28:17;16.20;99.90
14006;DHT22;7078;51.542;7.314;2023-05-09T17:30:42;16.20;99.90
14006;DHT22;7078;51.542;7.314;2023-05-09T17:33:09;16.20;99.90
14006;DHT22;7078;51.542;7.314;2023-05-09T17:35:35;16.20;99.90
14006;DHT22;7078;51.542;7.314;2023-05-09T17:38:01;16.20;99.90
14006;DHT22;7078;51.542;7.314;2023-05-09T17:40:27;16.10;99.90
14006;DHT22;7078;51.542;7.314;2023-05-09T17:42:53;16.10;99.90
14006;DHT22;7078;51.542;7.314;2023-05-09T17:45:18;16.10;99.90
14006;DHT22;7078;51.542;7.314;2023-05-09T17:47:45;16.10;99.90
14006;DHT22;7078;51.542;7.314;2023-05-09T17:50:10;16.10;99.90
14006;DHT22;7078;51.542;7.314;2023-05-09T17:52:38;16.10;99.90
14006;DHT22;7078;51.542;7.314;2023-05-09T17:55:04;16.10;99.90
14006;DHT22;7078;51.542;7.314;2023-05-09T17:57:30;16.00;99.90
14006;DHT22;7078;51.542;7.314;2023-05-09T17:59:55;16.10;99.90
14006;DHT22;7078;51.542;7.314;2023-05-09T18:02:21;16.10;99.90
14006;DHT22;7078;51.542;7.314;2023-05-09T18:04:49;16.00;99.90
14006;DHT22;7078;51.542;7.314;2023-05-09T18:07:15;16.00;99.90
14006;DHT22;7078;51.542;7.314;2023-05-09T18:09:40;16.00;99.90
14006;DHT22;7078;51.542;7.314;2023-05-09T18:12:06;16.00;99.90
14006;DHT22;7078;51.542;7.314;2023-05-09T18:14:32;16.00;99.90
14006;DHT22;7078;51.542;7.314;2023-05-09T18:16:58;16.00;99.90
14006;DHT22;7078;51.542;7.314;2023-05-09T18:19:24;15.90;99.90
14006;DHT22;7078;51.542;7.314;2023-05-09T18:21:49;15.90;99.90
14006;DHT22;7078;51.542;7.314;2023-05-09T18:24:15;15.90;99.90
14006;DHT22;7078;51.542;7.314;2023-05-09T18:26:40;15.90;99.90
14006;DHT22;7078;51.542;7.314;2023-05-09T18:29:07;15.90;99.90
14006;DHT22;7078;51.542;7.314;2023-05-09T18:31:33;15.90;99.90
14006;DHT22;7078;51.542;7.314;2023-05-09T18:34:03;15.90;99.90
14006;DHT22;7078;51.542;7.314;2023-05-09T18:36:29;15.90;99.90
14006;DHT22;7078;51.542;7.314;2023-05-09T18:38:55;15.90;99.90
14006;DHT22;7078;51.542;7.314;2023-05-09T18:41:20;15.90;99.90